sensor_id;sensor_type;location;lat;lon;timestamp;temperature;humidity
45383;DHT22;42455;51.660;5.824;2023-09-12T00:02:17;22.4;96.0
45383;DHT22;42455;51.660;5.824;2023-09-12T00:07:24;22.3;96.0
45383;DHT22;42455;51.660;5.824;2023-09-12T00:12:30;22.3;96.0
45383;DHT22;42455;51.660;5.824;2023-09-12T00:17:36;22.3;96.0
45383;DHT22;42455;51.660;5.824;2023-09-12T00:22:42;22.3;96.0
45383;DHT22;42455;51.660;5.824;2023-09-12T00:27:48;22.3;96.5
45383;DHT22;42455;51.660;5.824;2023-09-12T00:32:55;22.2;96.5
45383;DHT22;42455;51.660;5.824;2023-09-12T00:38:01;22.2;96.5
45383;DHT22;42455;51.660;5.824;2023-09-12T00:43:07;22.2;96.5
45383;DHT22;42455;51.660;5.824;2023-09-12T00:48:18;22.2;97.0
45383;DHT22;42455;51.660;5.824;2023-09-12T00:53:20;22.2;97.0
45383;DHT22;42455;51.660;5.824;2023-09-12T00:58:27;22.2;97.0
45383;DHT22;42455;51.660;5.824;2023-09-12T01:03:32;22.1;96.5
45383;DHT22;42455;51.660;5.824;2023-09-12T01:08:38;22.1;96.5
45383;DHT22;42455;51.660;5.824;2023-09-12T01:13:44;22.1;96.5
45383;DHT22;42455;51.660;5.824;2023-09-12T01:18:51;22.0;96.5
45383;DHT22;42455;51.660;5.824;2023-09-12T01:27:41;22.0;96.5
45383;DHT22;42455;51.660;5.824;2023-09-12T01:29:28;21.9;96.5
45383;DHT22;42455;51.660;5.824;2023-09-12T01:34:09;21.8;96.5
45383;DHT22;42455;51.660;5.824;2023-09-12T01:39:15;21.8;96.5
45383;DHT22;42455;51.660;5.824;2023-09-12T01:44:24;21.7;96.5
45383;DHT22;42455;51.660;5.824;2023-09-12T01:49:27;21.7;96.5
45383;DHT22;42455;51.660;5.824;2023-09-12T01:54:34;21.7;97.0
45383;DHT22;42455;51.660;5.824;2023-09-12T01:59:39;21.7;97.0
45383;DHT22;42455;51.660;5.824;2023-09-12T02:04:58;21.6;97.0
45383;DHT22;42455;51.660;5.824;2023-09-12T02:09:52;21.6;97.0
45383;DHT22;42455;51.660;5.824;2023-09-12T02:14:58;21.6;97.0
45383;DHT22;42455;51.660;5.824;2023-09-12T02:20:04;21.5;97.0
45383;DHT22;42455;51.660;5.824;2023-09-12T02:25:10;21.5;97.0
45383;DHT22;42455;51.660;5.824;2023-09-12T02:30:17;21.5;97.0
45383;DHT22;42455;51.660;5.824;2023-09-12T02:35:23;21.5;97.5
45383;DHT22;42455;51.660;5.824;2023-09-12T02:40:29;21.4;97.5
45383;DHT22;42455;51.660;5.824;2023-09-12T02:45:35;21.4;97.5
45383;DHT22;42455;51.660;5.824;2023-09-12T02:50:41;21.3;97.5
45383;DHT22;42455;51.660;5.824;2023-09-12T02:55:47;21.3;97.5
45383;DHT22;42455;51.660;5.824;2023-09-12T03:00:54;21.3;97.5
45383;DHT22;42455;51.660;5.824;2023-09-12T03:06:01;21.2;97.0
45383;DHT22;42455;51.660;5.824;2023-09-12T03:11:06;21.2;97.0
45383;DHT22;42455;51.660;5.824;2023-09-12T03:16:14;21.1;97.5
45383;DHT22;42455;51.660;5.824;2023-09-12T03:21:19;21.1;97.5
45383;DHT22;42455;51.660;5.824;2023-09-12T03:26:24;21.0;97.5
45383;DHT22;42455;51.660;5.824;2023-09-12T03:31:30;21.0;97.5
45383;DHT22;42455;51.660;5.824;2023-09-12T03:36:36;20.9;97.5
45383;DHT22;42455;51.660;5.824;2023-09-12T03:41:42;20.9;97.5
45383;DHT22;42455;51.660;5.824;2023-09-12T03:46:49;20.9;97.5
45383;DHT22;42455;51.660;5.824;2023-09-12T03:51:55;20.9;98.0
45383;DHT22;42455;51.660;5.824;2023-09-12T03:57:01;20.8;98.0
45383;DHT22;42455;51.660;5.824;2023-09-12T04:02:08;20.8;98.0
45383;DHT22;42455;51.660;5.824;2023-09-12T04:07:13;20.8;98.0
45383;DHT22;42455;51.660;5.824;2023-09-12T04:12:20;20.8;98.0
45383;DHT22;42455;51.660;5.824;2023-09-12T04:17:26;20.7;98.0
45383;DHT22;42455;51.660;5.824;2023-09-12T04:22:32;20.7;98.0
45383;DHT22;42455;51.660;5.824;2023-09-12T04:27:38;20.7;98.0
45383;DHT22;42455;51.660;5.824;2023-09-12T04:32:44;20.6;98.0
45383;DHT22;42455;51.660;5.824;2023-09-12T04:37:51;20.6;98.0
45383;DHT22;42455;51.660;5.824;2023-09-12T04:42:57;20.6;98.0
45383;DHT22;42455;51.660;5.824;2023-09-12T04:48:02;20.6;98.5
45383;DHT22;42455;51.660;5.824;2023-09-12T04:53:08;20.6;98.5
45383;DHT22;42455;51.660;5.824;2023-09-12T04:58:15;20.6;98.5
45383;DHT22;42455;51.660;5.824;2023-09-12T05:03:21;20.6;98.5
45383;DHT22;42455;51.660;5.824;2023-09-12T05:08:26;20.6;98.5
45383;DHT22;42455;51.660;5.824;2023-09-12T05:13:32;20.6;98.5
45383;DHT22;42455;51.660;5.824;2023-09-12T05:18:38;20.6;98.5
45383;DHT22;42455;51.660;5.824;2023-09-12T05:23:45;20.6;98.5
45383;DHT22;42455;51.660;5.824;2023-09-12T05:28:51;20.6;98.5
45383;DHT22;42455;51.660;5.824;2023-09-12T05:33:57;20.7;98.5
45383;DHT22;42455;51.660;5.824;2023-09-12T05:39:03;20.6;98.5
45383;DHT22;42455;51.660;5.824;2023-09-12T05:44:10;20.6;98.5
45383;DHT22;42455;51.660;5.824;2023-09-12T05:49:16;20.6;98.5
45383;DHT22;42455;51.660;5.824;2023-09-12T05:54:22;20.6;98.5
45383;DHT22;42455;51.660;5.824;2023-09-12T05:59:28;20.7;98.5
45383;DHT22;42455;51.660;5.824;2023-09-12T06:04:35;20.7;98.5
45383;DHT22;42455;51.660;5.824;2023-09-12T06:09:41;20.7;98.5
45383;DHT22;42455;51.660;5.824;2023-09-12T06:14:47;20.7;98.5
45383;DHT22;42455;51.660;5.824;2023-09-12T06:19:54;20.8;98.5
45383;DHT22;42455;51.660;5.824;2023-09-12T06:24:59;20.8;98.5
45383;DHT22;42455;51.660;5.824;2023-09-12T06:30:06;20.8;98.5
45383;DHT22;42455;51.660;5.824;2023-09-12T06:35:12;20.8;98.5
45383;DHT22;42455;51.660;5.824;2023-09-12T06:40:18;20.8;98.5
45383;DHT22;42455;51.660;5.824;2023-09-12T06:45:24;20.9;98.5
45383;DHT22;42455;51.660;5.824;2023-09-12T06:50:29;20.9;98.5
45383;DHT22;42455;51.660;5.824;2023-09-12T06:55:35;20.9;98.5
45383;DHT22;42455;51.660;5.824;2023-09-12T07:00:42;21.0;98.5
45383;DHT22;42455;51.660;5.824;2023-09-12T07:05:48;21.1;98.5
45383;DHT22;42455;51.660;5.824;2023-09-12T07:10:54;21.1;98.5
45383;DHT22;42455;51.660;5.824;2023-09-12T07:16:00;21.1;98.5
45383;DHT22;42455;51.660;5.824;2023-09-12T07:21:07;21.1;98.5
45383;DHT22;42455;51.660;5.824;2023-09-12T07:26:13;21.2;98.5
45383;DHT22;42455;51.660;5.824;2023-09-12T07:31:19;21.3;98.5
45383;DHT22;42455;51.660;5.824;2023-09-12T07:36:25;21.3;98.5
45383;DHT22;42455;51.660;5.824;2023-09-12T07:41:31;21.4;98.5
45383;DHT22;42455;51.660;5.824;2023-09-12T07:51:44;21.6;98.5
45383;DHT22;42455;51.660;5.824;2023-09-12T07:56:50;21.7;98.5
45383;DHT22;42455;51.660;5.824;2023-09-12T08:01:56;21.9;98.5
45383;DHT22;42455;51.660;5.824;2023-09-12T08:07:02;22.0;98.5
45383;DHT22;42455;51.660;5.824;2023-09-12T08:12:09;22.2;98.5
45383;DHT22;42455;51.660;5.824;2023-09-12T08:17:15;22.5;98.5
45383;DHT22;42455;51.660;5.824;2023-09-12T08:22:21;22.8;98.5
45383;DHT22;42455;51.660;5.824;2023-09-12T08:27:27;23.0;98.5
45383;DHT22;42455;51.660;5.824;2023-09-12T08:32:33;23.2;98.5
45383;DHT22;42455;51.660;5.824;2023-09-12T08:37:40;23.5;98.5
45383;DHT22;42455;51.660;5.824;2023-09-12T08:42:47;23.7;98.5
45383;DHT22;42455;51.660;5.824;2023-09-12T08:47:59;23.9;98.0
45383;DHT22;42455;51.660;5.824;2023-09-12T08:52:58;24.1;97.5
45383;DHT22;42455;51.660;5.824;2023-09-12T08:58:05;24.3;96.5
45383;DHT22;42455;51.660;5.824;2023-09-12T09:03:11;24.5;96.0
45383;DHT22;42455;51.660;5.824;2023-09-12T09:08:18;24.6;95.0
45383;DHT22;42455;51.660;5.824;2023-09-12T09:13:23;24.6;94.5
45383;DHT22;42455;51.660;5.824;2023-09-12T09:18:30;24.5;94.5
45383;DHT22;42455;51.660;5.824;2023-09-12T09:23:44;24.6;94.5
45383;DHT22;42455;51.660;5.824;2023-09-12T09:28:42;24.7;94.5
45383;DHT22;42455;51.660;5.824;2023-09-12T09:33:48;24.8;94.0
45383;DHT22;42455;51.660;5.824;2023-09-12T09:38:54;24.8;93.5
45383;DHT22;42455;51.660;5.824;2023-09-12T09:44:00;24.9;93.5
45383;DHT22;42455;51.660;5.824;2023-09-12T09:49:09;25.0;93.0
45383;DHT22;42455;51.660;5.824;2023-09-12T09:54:13;25.2;93.0
45383;DHT22;42455;51.660;5.824;2023-09-12T09:59:22;25.3;92.5
45383;DHT22;42455;51.660;5.824;2023-09-12T10:04:28;25.5;92.5
45383;DHT22;42455;51.660;5.824;2023-09-12T10:09:32;25.7;92.0
45383;DHT22;42455;51.660;5.824;2023-09-12T10:14:39;25.8;91.5
45383;DHT22;42455;51.660;5.824;2023-09-12T10:20:03;26.0;91.0
45383;DHT22;42455;51.660;5.824;2023-09-12T10:24:52;26.1;90.5
45383;DHT22;42455;51.660;5.824;2023-09-12T10:29:57;26.3;90.0
45383;DHT22;42455;51.660;5.824;2023-09-12T10:35:04;26.4;90.0
45383;DHT22;42455;51.660;5.824;2023-09-12T10:40:11;26.6;89.5
45383;DHT22;42455;51.660;5.824;2023-09-12T10:45:15;26.7;87.5
45383;DHT22;42455;51.660;5.824;2023-09-12T10:50:21;26.8;88.0
45383;DHT22;42455;51.660;5.824;2023-09-12T10:55:27;26.9;87.5
45383;DHT22;42455;51.660;5.824;2023-09-12T11:00:34;27.1;87.0
45383;DHT22;42455;51.660;5.824;2023-09-12T11:05:56;27.2;85.5
45383;DHT22;42455;51.660;5.824;2023-09-12T11:11:16;27.3;85.0
45383;DHT22;42455;51.660;5.824;2023-09-12T11:16:16;0.0;0.0
45383;DHT22;42455;51.660;5.824;2023-09-12T11:21:03;27.6;83.5
45383;DHT22;42455;51.660;5.824;2023-09-12T11:26:06;27.6;83.0
45383;DHT22;42455;51.660;5.824;2023-09-12T11:31:11;27.6;83.0
45383;DHT22;42455;51.660;5.824;2023-09-12T11:36:18;27.7;82.5
45383;DHT22;42455;51.660;5.824;2023-09-12T11:41:39;27.8;82.0
45383;DHT22;42455;51.660;5.824;2023-09-12T11:46:30;27.8;82.0
45383;DHT22;42455;51.660;5.824;2023-09-12T11:51:45;27.8;82.0
45383;DHT22;42455;51.660;5.824;2023-09-12T11:56:42;27.8;82.0
45383;DHT22;42455;51.660;5.824;2023-09-12T12:01:49;27.8;81.0
45383;DHT22;42455;51.660;5.824;2023-09-12T12:06:56;27.8;81.0
45383;DHT22;42455;51.660;5.824;2023-09-12T12:12:08;27.8;81.0
45383;DHT22;42455;51.660;5.824;2023-09-12T12:17:07;27.8;81.0
45383;DHT22;42455;51.660;5.824;2023-09-12T12:22:12;27.9;81.0
45383;DHT22;42455;51.660;5.824;2023-09-12T12:27:18;27.9;81.0
45383;DHT22;42455;51.660;5.824;2023-09-12T12:32:25;27.9;80.5
45383;DHT22;42455;51.660;5.824;2023-09-12T12:37:31;27.8;80.0
45383;DHT22;42455;51.660;5.824;2023-09-12T12:42:39;27.8;79.5
45383;DHT22;42455;51.660;5.824;2023-09-12T12:47:44;27.7;79.5
45383;DHT22;42455;51.660;5.824;2023-09-12T12:52:50;27.5;79.5
45383;DHT22;42455;51.660;5.824;2023-09-12T12:57:56;27.4;79.5
45383;DHT22;42455;51.660;5.824;2023-09-12T13:03:02;27.4;80.0
45383;DHT22;42455;51.660;5.824;2023-09-12T13:08:08;27.4;79.5
45383;DHT22;42455;51.660;5.824;2023-09-12T13:13:14;27.6;80.0
45383;DHT22;42455;51.660;5.824;2023-09-12T13:18:21;27.8;80.0
45383;DHT22;42455;51.660;5.824;2023-09-12T13:23:27;27.9;79.5
45383;DHT22;42455;51.660;5.824;2023-09-12T13:28:33;28.0;78.5
45383;DHT22;42455;51.660;5.824;2023-09-12T13:33:39;28.0;78.5
45383;DHT22;42455;51.660;5.824;2023-09-12T13:38:46;28.0;78.0
45383;DHT22;42455;51.660;5.824;2023-09-12T13:43:52;28.0;78.0
45383;DHT22;42455;51.660;5.824;2023-09-12T13:48:58;28.2;78.5
45383;DHT22;42455;51.660;5.824;2023-09-12T13:54:04;28.3;77.0
45383;DHT22;42455;51.660;5.824;2023-09-12T13:59:11;28.3;76.5
45383;DHT22;42455;51.660;5.824;2023-09-12T14:04:17;28.3;75.5
45383;DHT22;42455;51.660;5.824;2023-09-12T14:09:23;28.1;75.5
45383;DHT22;42455;51.660;5.824;2023-09-12T14:14:29;28.1;75.5
45383;DHT22;42455;51.660;5.824;2023-09-12T14:19:35;28.2;75.5
45383;DHT22;42455;51.660;5.824;2023-09-12T14:24:42;28.3;76.0
45383;DHT22;42455;51.660;5.824;2023-09-12T14:29:48;28.4;75.5
45383;DHT22;42455;51.660;5.824;2023-09-12T14:34:54;28.5;76.0
45383;DHT22;42455;51.660;5.824;2023-09-12T14:40:03;28.7;75.0
45383;DHT22;42455;51.660;5.824;2023-09-12T14:45:07;28.7;74.5
45383;DHT22;42455;51.660;5.824;2023-09-12T14:50:13;28.6;74.5
45383;DHT22;42455;51.660;5.824;2023-09-12T14:55:19;28.6;74.5
45383;DHT22;42455;51.660;5.824;2023-09-12T15:00:25;28.6;74.5
45383;DHT22;42455;51.660;5.824;2023-09-12T15:05:31;28.6;74.5
45383;DHT22;42455;51.660;5.824;2023-09-12T15:10:38;28.7;74.0
45383;DHT22;42455;51.660;5.824;2023-09-12T15:15:44;28.8;74.5
45383;DHT22;42455;51.660;5.824;2023-09-12T15:20:51;28.8;74.0
45383;DHT22;42455;51.660;5.824;2023-09-12T15:25:56;28.8;73.0
45383;DHT22;42455;51.660;5.824;2023-09-12T15:31:02;28.8;72.5
45383;DHT22;42455;51.660;5.824;2023-09-12T15:36:09;28.7;72.5
45383;DHT22;42455;51.660;5.824;2023-09-12T15:41:15;28.7;72.5
45383;DHT22;42455;51.660;5.824;2023-09-12T15:46:21;28.7;72.5
45383;DHT22;42455;51.660;5.824;2023-09-12T15:51:27;28.6;72.0
45383;DHT22;42455;51.660;5.824;2023-09-12T15:56:33;28.5;72.5
45383;DHT22;42455;51.660;5.824;2023-09-12T16:01:40;28.4;73.0
45383;DHT22;42455;51.660;5.824;2023-09-12T16:06:46;28.3;73.0
45383;DHT22;42455;51.660;5.824;2023-09-12T16:11:52;28.2;73.0
45383;DHT22;42455;51.660;5.824;2023-09-12T16:16:58;28.1;73.0
45383;DHT22;42455;51.660;5.824;2023-09-12T16:22:05;28.0;72.5
45383;DHT22;42455;51.660;5.824;2023-09-12T16:27:11;27.8;73.5
45383;DHT22;42455;51.660;5.824;2023-09-12T16:32:17;27.7;74.5
45383;DHT22;42455;51.660;5.824;2023-09-12T16:37:24;27.5;75.5
45383;DHT22;42455;51.660;5.824;2023-09-12T16:42:30;27.4;75.5
45383;DHT22;42455;51.660;5.824;2023-09-12T16:47:36;27.3;75.5
45383;DHT22;42455;51.660;5.824;2023-09-12T16:52:42;27.3;76.0
45383;DHT22;42455;51.660;5.824;2023-09-12T16:57:48;27.1;76.5
45383;DHT22;42455;51.660;5.824;2023-09-12T17:02:54;27.1;76.5
45383;DHT22;42455;51.660;5.824;2023-09-12T17:08:01;0.0;0.0
45383;DHT22;42455;51.660;5.824;2023-09-12T17:13:07;26.8;77.0
45383;DHT22;42455;51.660;5.824;2023-09-12T17:18:13;26.7;78.0
45383;DHT22;42455;51.660;5.824;2023-09-12T17:23:20;26.6;78.5
45383;DHT22;42455;51.660;5.824;2023-09-12T17:28:26;26.5;79.5
45383;DHT22;42455;51.660;5.824;2023-09-12T17:33:32;26.3;80.0
45383;DHT22;42455;51.660;5.824;2023-09-12T17:38:40;26.2;81.0
45383;DHT22;42455;51.660;5.824;2023-09-12T17:43:45;26.1;81.0
45383;DHT22;42455;51.660;5.824;2023-09-12T17:48:51;26.0;82.0
45383;DHT22;42455;51.660;5.824;2023-09-12T17:53:56;25.9;82.0
45383;DHT22;42455;51.660;5.824;2023-09-12T17:59:02;25.9;83.0
45383;DHT22;42455;51.660;5.824;2023-09-12T18:04:08;25.8;83.0
45383;DHT22;42455;51.660;5.824;2023-09-12T18:09:14;25.7;83.5
45383;DHT22;42455;51.660;5.824;2023-09-12T18:14:21;25.6;84.5
45383;DHT22;42455;51.660;5.824;2023-09-12T18:19:27;25.5;85.0
45383;DHT22;42455;51.660;5.824;2023-09-12T18:24:33;25.4;85.5
45383;DHT22;42455;51.660;5.824;2023-09-12T18:29:39;25.3;86.0
45383;DHT22;42455;51.660;5.824;2023-09-12T18:34:46;25.2;86.5
45383;DHT22;42455;51.660;5.824;2023-09-12T18:39:52;25.1;87.0
45383;DHT22;42455;51.660;5.824;2023-09-12T18:44:58;24.9;87.5
45383;DHT22;42455;51.660;5.824;2023-09-12T18:50:05;24.8;88.5
45383;DHT22;42455;51.660;5.824;2023-09-12T18:55:10;24.7;89.0
45383;DHT22;42455;51.660;5.824;2023-09-12T19:00:17;24.6;89.0
45383;DHT22;42455;51.660;5.824;2023-09-12T19:10:29;24.3;90.0
45383;DHT22;42455;51.660;5.824;2023-09-12T19:15:35;24.3;90.5
45383;DHT22;42455;51.660;5.824;2023-09-12T19:20:41;24.2;90.5
45383;DHT22;42455;51.660;5.824;2023-09-12T19:25:48;24.2;90.5
45383;DHT22;42455;51.660;5.824;2023-09-12T19:30:54;24.2;91.0
45383;DHT22;42455;51.660;5.824;2023-09-12T19:36:00;24.1;91.5
45383;DHT22;42455;51.660;5.824;2023-09-12T19:41:06;24.0;91.5
45383;DHT22;42455;51.660;5.824;2023-09-12T19:46:12;24.0;92.0
45383;DHT22;42455;51.660;5.824;2023-09-12T19:51:19;23.9;92.0
45383;DHT22;42455;51.660;5.824;2023-09-12T19:56:25;23.9;92.5
45383;DHT22;42455;51.660;5.824;2023-09-12T20:01:31;23.8;92.5
45383;DHT22;42455;51.660;5.824;2023-09-12T20:06:37;23.8;93.0
45383;DHT22;42455;51.660;5.824;2023-09-12T20:11:43;23.7;93.0
45383;DHT22;42455;51.660;5.824;2023-09-12T20:16:50;23.7;93.0
45383;DHT22;42455;51.660;5.824;2023-09-12T20:21:56;23.7;93.5
45383;DHT22;42455;51.660;5.824;2023-09-12T20:27:02;23.6;93.5
45383;DHT22;42455;51.660;5.824;2023-09-12T20:32:08;23.6;93.5
45383;DHT22;42455;51.660;5.824;2023-09-12T20:37:14;23.5;94.0
45383;DHT22;42455;51.660;5.824;2023-09-12T20:42:21;23.5;94.0
45383;DHT22;42455;51.660;5.824;2023-09-12T20:47:27;23.4;94.0
45383;DHT22;42455;51.660;5.824;2023-09-12T20:52:33;23.4;94.5
45383;DHT22;42455;51.660;5.824;2023-09-12T20:57:39;23.4;94.5
45383;DHT22;42455;51.660;5.824;2023-09-12T21:02:46;23.4;94.5
45383;DHT22;42455;51.660;5.824;2023-09-12T21:07:52;23.3;94.5
45383;DHT22;42455;51.660;5.824;2023-09-12T21:12:58;23.3;94.5
45383;DHT22;42455;51.660;5.824;2023-09-12T21:18:04;23.3;94.5
45383;DHT22;42455;51.660;5.824;2023-09-12T21:23:10;23.2;95.0
45383;DHT22;42455;51.660;5.824;2023-09-12T21:28:17;23.2;95.0
45383;DHT22;42455;51.660;5.824;2023-09-12T21:33:23;23.1;95.0
45383;DHT22;42455;51.660;5.824;2023-09-12T21:38:29;23.1;95.0
45383;DHT22;42455;51.660;5.824;2023-09-12T21:43:35;23.0;95.5
45383;DHT22;42455;51.660;5.824;2023-09-12T21:48:41;23.0;95.5
45383;DHT22;42455;51.660;5.824;2023-09-12T21:53:47;23.0;95.5
45383;DHT22;42455;51.660;5.824;2023-09-12T21:58:53;22.9;95.5
45383;DHT22;42455;51.660;5.824;2023-09-12T22:03:59;22.8;95.5
45383;DHT22;42455;51.660;5.824;2023-09-12T22:09:05;22.8;96.0
45383;DHT22;42455;51.660;5.824;2023-09-12T22:14:12;22.7;96.0
45383;DHT22;42455;51.660;5.824;2023-09-12T22:19:18;22.7;96.0
45383;DHT22;42455;51.660;5.824;2023-09-12T22:24:24;22.7;96.5
45383;DHT22;42455;51.660;5.824;2023-09-12T22:29:31;22.6;96.5
45383;DHT22;42455;51.660;5.824;2023-09-12T22:34:36;22.6;96.5
45383;DHT22;42455;51.660;5.824;2023-09-12T22:39:43;22.6;96.5
45383;DHT22;42455;51.660;5.824;2023-09-12T22:44:49;22.6;97.0
45383;DHT22;42455;51.660;5.824;2023-09-12T22:49:56;22.6;97.0
45383;DHT22;42455;51.660;5.824;2023-09-12T22:55:01;22.5;97.0
45383;DHT22;42455;51.660;5.824;2023-09-12T23:00:07;22.5;97.0
45383;DHT22;42455;51.660;5.824;2023-09-12T23:05:14;22.4;97.0
45383;DHT22;42455;51.660;5.824;2023-09-12T23:10:20;22.4;97.5
45383;DHT22;42455;51.660;5.824;2023-09-12T23:15:26;22.3;97.5
45383;DHT22;42455;51.660;5.824;2023-09-12T23:20:32;22.3;97.5
45383;DHT22;42455;51.660;5.824;2023-09-12T23:25:38;22.3;97.5
45383;DHT22;42455;51.660;5.824;2023-09-12T23:30:45;22.3;97.5
45383;DHT22;42455;51.660;5.824;2023-09-12T23:35:51;22.3;97.5
45383;DHT22;42455;51.660;5.824;2023-09-12T23:40:57;22.2;97.5
45383;DHT22;42455;51.660;5.824;2023-09-12T23:46:03;22.2;97.5
45383;DHT22;42455;51.660;5.824;2023-09-12T23:51:10;22.2;97.5
45383;DHT22;42455;51.660;5.824;2023-09-12T23:56:16;22.1;97.5
